Time;durP1;ratioP1;P1;durP2;ratioP2;P2;SDS_P1;SDS_P2;PMS_P1;PMS_P2;Temp;Humidity;BMP_temperature;BMP_pressure;BME280_temperature;BME280_humidity;BME280_pressure;Samples;Min_cycle;Max_cycle;Signal;HPM_P1;HPM_P2
2023/07/22 00:01:19;;;;;;;0.70;0.70;;;13.90;99.90;;;;;;5046680;28;20479;-74
2023/07/22 00:03:44;;;;;;;0.50;0.50;;;14.00;99.90;;;;;;5045516;28;20032;-74
2023/07/22 00:06:10;;;;;;;2.47;0.68;;;13.90;99.90;;;;;;5054542;28;20128;-74
2023/07/22 00:08:37;;;;;;;0.30;0.30;;;13.90;99.90;;;;;;5056747;28;20045;-72
2023/07/22 00:11:07;;;;;;;0.40;0.40;;;13.80;99.90;;;;;;5052388;28;20055;-73
2023/07/22 00:13:33;;;;;;;0.63;0.63;;;13.70;99.90;;;;;;5058460;28;20032;-73
2023/07/22 00:16:00;;;;;;;0.68;0.68;;;13.80;99.90;;;;;;5052958;28;20031;-72
2023/07/22 00:18:27;;;;;;;0.40;0.40;;;13.50;99.90;;;;;;5042231;28;20037;-73
2023/07/22 00:20:54;;;;;;;0.50;0.50;;;13.60;99.90;;;;;;5059877;28;20036;-73
2023/07/22 00:23:21;;;;;;;0.40;0.40;;;13.50;99.90;;;;;;5054354;28;20060;-73
2023/07/22 00:25:47;;;;;;;0.50;0.50;;;13.70;99.90;;;;;;5043087;28;20086;-73
2023/07/22 00:28:13;;;;;;;0.25;0.25;;;13.50;99.90;;;;;;5047394;28;20056;-73
2023/07/22 00:30:39;;;;;;;0.40;0.40;;;13.50;99.90;;;;;;5048764;28;20123;-73
2023/07/22 00:33:05;;;;;;;0.40;0.40;;;13.60;99.90;;;;;;5058883;28;20100;-72
2023/07/22 00:35:31;;;;;;;0.50;0.50;;;13.60;99.90;;;;;;5059713;28;20033;-73
2023/07/22 00:37:58;;;;;;;0.45;0.45;;;13.40;99.90;;;;;;5039395;28;20040;-73
2023/07/22 00:40:24;;;;;;;0.60;0.60;;;13.40;99.90;;;;;;5068058;28;20363;-72
2023/07/22 00:42:49;;;;;;;0.90;0.75;;;13.40;99.90;;;;;;5052538;28;20396;-73
2023/07/22 00:45:15;;;;;;;0.45;0.45;;;13.30;99.90;;;;;;5042037;28;20420;-73
2023/07/22 00:47:41;;;;;;;0.70;0.70;;;13.30;99.90;;;;;;5057138;28;20466;-73
2023/07/22 00:50:08;;;;;;;0.40;0.40;;;13.30;99.90;;;;;;5055373;28;20045;-72
2023/07/22 00:52:37;;;;;;;1.85;0.93;;;13.10;99.90;;;;;;5060787;28;20097;-71
2023/07/22 00:55:05;;;;;;;0.55;0.47;;;13.20;99.90;;;;;;5043691;28;20035;-73
2023/07/22 00:57:31;;;;;;;0.40;0.40;;;13.10;99.90;;;;;;5061971;28;20044;-73
2023/07/22 00:59:56;;;;;;;0.50;0.50;;;13.20;99.90;;;;;;5066942;28;20036;-73
2023/07/22 01:02:23;;;;;;;0.80;0.68;;;13.00;99.90;;;;;;5050272;28;20040;-72
2023/07/22 01:04:50;;;;;;;1.13;0.90;;;12.90;99.90;;;;;;5059936;28;20044;-73
2023/07/22 01:07:16;;;;;;;0.93;0.93;;;13.00;99.90;;;;;;5044856;28;20044;-73
2023/07/22 01:09:43;;;;;;;0.40;0.40;;;12.90;99.90;;;;;;5056720;28;20040;-73
2023/07/22 01:12:09;;;;;;;0.73;0.73;;;12.90;99.90;;;;;;5063572;28;20037;-73
2023/07/22 01:14:41;;;;;;;0.40;0.40;;;12.70;99.90;;;;;;5051020;28;20040;-73
2023/07/22 01:17:08;;;;;;;3.67;0.68;;;12.70;99.90;;;;;;5058111;28;20037;-73
2023/07/22 01:19:34;;;;;;;0.50;0.50;;;12.70;99.90;;;;;;5059585;28;20610;-73
2023/07/22 01:22:01;;;;;;;0.40;0.40;;;;;;;;;;5059332;28;20036;-73
2023/07/22 01:24:31;;;;;;;0.30;0.30;;;12.80;99.90;;;;;;5047646;28;20040;-73
2023/07/22 01:26:56;;;;;;;0.52;0.52;;;12.70;99.90;;;;;;5063635;28;20143;-73
2023/07/22 01:29:23;;;;;;;0.40;0.40;;;12.70;99.90;;;;;;5062401;28;20562;-73
2023/07/22 01:31:51;;;;;;;0.57;0.57;;;12.40;99.90;;;;;;5040122;28;20455;-73
2023/07/22 01:34:17;;;;;;;0.40;0.40;;;12.60;99.90;;;;;;5050294;28;20340;-73
2023/07/22 01:36:45;;;;;;;0.40;0.40;;;12.60;99.90;;;;;;5059004;28;20056;-72
2023/07/22 01:39:13;;;;;;;0.40;0.40;;;12.50;99.90;;;;;;5058974;28;20402;-73
2023/07/22 01:41:39;;;;;;;0.38;0.38;;;12.30;99.90;;;;;;5062994;28;20042;-73
2023/07/22 01:44:05;;;;;;;0.57;0.57;;;12.30;99.90;;;;;;5061524;28;20041;-73
2023/07/22 01:46:31;;;;;;;0.45;0.45;;;12.30;99.90;;;;;;5055036;28;20376;-73
2023/07/22 01:48:56;;;;;;;0.40;0.40;;;12.30;99.90;;;;;;5060981;28;20064;-73
2023/07/22 01:51:22;;;;;;;0.30;0.30;;;12.30;99.90;;;;;;5037674;28;20064;-73
2023/07/22 01:53:49;;;;;;;0.40;0.40;;;12.20;99.90;;;;;;5055127;28;20120;-73
2023/07/22 01:56:16;;;;;;;0.40;0.40;;;12.20;99.90;;;;;;5040963;28;20040;-73
2023/07/22 01:58:42;;;;;;;0.70;0.70;;;12.10;99.90;;;;;;5051798;28;20037;-73
2023/07/22 02:01:08;;;;;;;0.40;0.40;;;12.10;99.90;;;;;;5048505;28;20059;-73
2023/07/22 02:03:34;;;;;;;0.30;0.30;;;12.10;99.90;;;;;;5040137;28;20480;-72
2023/07/22 02:06:03;;;;;;;0.88;0.73;;;12.00;99.90;;;;;;5048453;28;20040;-71
2023/07/22 02:08:29;;;;;;;0.80;0.75;;;12.00;99.90;;;;;;5050780;28;20102;-72
2023/07/22 02:10:54;;;;;;;0.40;0.40;;;12.00;99.90;;;;;;5057207;28;20445;-73
2023/07/22 02:13:20;;;;;;;0.55;0.55;;;12.10;99.90;;;;;;5050051;28;20048;-73
2023/07/22 02:15:47;;;;;;;0.40;0.40;;;11.90;99.90;;;;;;5047531;28;20094;-73
2023/07/22 02:18:13;;;;;;;0.40;0.40;;;11.80;99.90;;;;;;5057011;28;20041;-74
2023/07/22 02:20:42;;;;;;;0.30;0.30;;;11.90;99.90;;;;;;5059959;28;20039;-74
2023/07/22 02:23:07;;;;;;;0.70;0.70;;;11.80;99.90;;;;;;5039613;28;20036;-74
2023/07/22 02:25:33;;;;;;;0.40;0.40;;;11.90;99.90;;;;;;5039795;28;20503;-74
2023/07/22 02:27:59;;;;;;;0.32;0.32;;;11.80;99.90;;;;;;5059670;28;20491;-74
2023/07/22 02:30:24;;;;;;;0.50;0.50;;;11.70;99.90;;;;;;5050878;28;20504;-72
2023/07/22 02:32:50;;;;;;;0.70;0.70;;;11.70;99.90;;;;;;5038429;28;20064;-73
2023/07/22 02:35:16;;;;;;;0.40;0.40;;;11.70;99.90;;;;;;5053902;28;20502;-73
2023/07/22 02:37:41;;;;;;;0.40;0.40;;;11.70;99.90;;;;;;5047749;28;20036;-73
2023/07/22 02:40:07;;;;;;;0.40;0.40;;;11.80;99.90;;;;;;5049902;28;20060;-74
2023/07/22 02:42:35;;;;;;;0.95;0.95;;;11.60;99.90;;;;;;5043064;28;20036;-74
2023/07/22 02:45:01;;;;;;;0.40;0.40;;;11.70;99.90;;;;;;5065266;28;20468;-74
2023/07/22 02:47:28;;;;;;;0.70;0.70;;;11.80;99.90;;;;;;5053660;28;20040;-74
2023/07/22 02:49:54;;;;;;;0.40;0.40;;;11.70;99.90;;;;;;5055362;28;20080;-74
2023/07/22 02:52:20;;;;;;;1.63;1.38;;;11.80;99.90;;;;;;5041365;28;20332;-74
2023/07/22 02:55:04;;;;;;;0.32;0.32;;;11.60;99.90;;;;;;5060749;28;20071;-74
2023/07/22 02:57:29;;;;;;;0.52;0.52;;;11.70;99.90;;;;;;5053691;28;20039;-74
2023/07/22 02:59:56;;;;;;;0.40;0.40;;;11.80;99.90;;;;;;5051773;28;20036;-72
2023/07/22 03:02:22;;;;;;;0.47;0.47;;;11.70;99.90;;;;;;5064611;28;20036;-73
2023/07/22 03:04:47;;;;;;;0.50;0.50;;;11.70;99.90;;;;;;5047398;28;20492;-74
2023/07/22 03:07:13;;;;;;;1.40;1.30;;;11.80;99.90;;;;;;5043712;28;20044;-73
2023/07/22 03:09:39;;;;;;;0.90;0.90;;;11.80;99.90;;;;;;5043951;28;20040;-73
2023/07/22 03:12:05;;;;;;;0.55;0.55;;;11.80;99.90;;;;;;5063018;28;20029;-73
2023/07/22 03:14:36;;;;;;;0.43;0.43;;;11.60;99.90;;;;;;5055379;28;20099;-73
2023/07/22 03:17:03;;;;;;;1.73;1.63;;;11.80;99.90;;;;;;5060458;28;20033;-73
2023/07/22 03:19:29;;;;;;;1.80;1.70;;;11.90;99.90;;;;;;5057871;28;20048;-73
2023/07/22 03:21:55;;;;;;;0.63;0.63;;;;;;;;;;5046040;28;20062;-73
2023/07/22 03:24:21;;;;;;;0.60;0.60;;;11.70;99.90;;;;;;5058410;28;20040;-73
2023/07/22 03:26:47;;;;;;;0.50;0.50;;;11.80;99.90;;;;;;5056211;28;20057;-73
2023/07/22 03:29:13;;;;;;;0.68;0.68;;;12.00;99.90;;;;;;5045413;28;20044;-73
2023/07/22 03:31:39;;;;;;;0.70;0.70;;;11.80;99.90;;;;;;5048148;28;20035;-74
2023/07/22 03:34:04;;;;;;;1.75;0.98;;;11.80;99.90;;;;;;5051652;28;20037;-72
2023/07/22 03:36:33;;;;;;;0.40;0.40;;;12.00;99.90;;;;;;5049018;28;20029;-73
2023/07/22 03:38:59;;;;;;;0.40;0.40;;;12.00;99.90;;;;;;5056502;28;20041;-73
2023/07/22 03:41:25;;;;;;;0.60;0.60;;;11.90;99.90;;;;;;5062601;28;20123;-74
2023/07/22 03:43:51;;;;;;;0.35;0.35;;;11.80;99.90;;;;;;5065563;28;20152;-74
2023/07/22 03:46:16;;;;;;;0.65;0.65;;;11.70;99.90;;;;;;5063570;28;20032;-73
2023/07/22 03:48:42;;;;;;;0.50;0.50;;;12.10;99.90;;;;;;5073783;28;20442;-73
2023/07/22 03:51:08;;;;;;;0.52;0.52;;;11.90;99.90;;;;;;5058201;28;20037;-73
2023/07/22 03:53:33;;;;;;;0.85;0.85;;;12.00;99.90;;;;;;5062080;28;20037;-73
2023/07/22 03:55:59;;;;;;;0.52;0.45;;;11.90;99.90;;;;;;5047371;28;20029;-74
2023/07/22 03:58:25;;;;;;;0.43;0.43;;;11.80;99.90;;;;;;5060806;28;20086;-73
2023/07/22 04:00:50;;;;;;;0.40;0.40;;;12.00;99.90;;;;;;5060944;28;20403;-74
2023/07/22 04:03:16;;;;;;;0.98;0.98;;;12.10;99.90;;;;;;5057923;28;20037;-74
2023/07/22 04:05:42;;;;;;;0.50;0.50;;;12.00;99.90;;;;;;5057054;28;20044;-73
2023/07/22 04:08:07;;;;;;;0.50;0.50;;;12.10;99.90;;;;;;5053488;28;20045;-73
2023/07/22 04:10:33;;;;;;;0.38;0.38;;;12.20;99.90;;;;;;5061144;28;20560;-73
2023/07/22 04:12:59;;;;;;;0.60;0.60;;;12.10;99.90;;;;;;5052725;28;20522;-73
2023/07/22 04:15:24;;;;;;;0.40;0.32;;;12.50;99.90;;;;;;5041572;28;20033;-73
2023/07/22 04:17:50;;;;;;;0.40;0.40;;;12.30;99.90;;;;;;5060060;28;20483;-73
2023/07/22 04:20:17;;;;;;;0.40;0.40;;;12.40;99.90;;;;;;5040750;28;20044;-74
2023/07/22 04:22:43;;;;;;;0.40;0.40;;;12.50;99.90;;;;;;5048009;28;20056;-73
2023/07/22 04:25:09;;;;;;;0.63;0.63;;;12.40;99.90;;;;;;5058096;28;20029;-73
2023/07/22 04:27:35;;;;;;;0.82;0.82;;;12.60;99.90;;;;;;5066128;28;20107;-74
2023/07/22 04:30:00;;;;;;;0.50;0.50;;;12.50;99.90;;;;;;5063055;28;20036;-74
2023/07/22 04:32:26;;;;;;;0.50;0.50;;;12.60;99.90;;;;;;5065172;28;20064;-74
2023/07/22 04:34:52;;;;;;;0.77;0.77;;;12.60;99.90;;;;;;5068184;28;20380;-73
2023/07/22 04:37:18;;;;;;;1.23;0.88;;;12.70;99.90;;;;;;5048878;28;20048;-73
2023/07/22 04:39:49;;;;;;;0.45;0.45;;;12.60;99.90;;;;;;5056344;28;20033;-73
2023/07/22 04:42:14;;;;;;;0.88;0.82;;;12.90;99.90;;;;;;5062208;28;20040;-74
2023/07/22 04:44:40;;;;;;;0.57;0.57;;;12.80;99.90;;;;;;5064327;28;20064;-74
2023/07/22 04:47:06;;;;;;;0.30;0.30;;;13.00;99.90;;;;;;5037061;28;20131;-74
2023/07/22 04:49:32;;;;;;;0.90;0.90;;;12.80;99.90;;;;;;5057551;28;20495;-74
2023/07/22 04:51:57;;;;;;;0.63;0.63;;;13.00;99.90;;;;;;5063739;28;20041;-74
2023/07/22 04:54:23;;;;;;;1.35;1.25;;;;;;;;;;5056073;28;20049;-74
2023/07/22 04:56:49;;;;;;;1.15;0.90;;;13.10;99.90;;;;;;5057558;28;20515;-74
2023/07/22 04:59:15;;;;;;;1.30;1.25;;;13.00;99.90;;;;;;5062829;28;20044;-74
2023/07/22 05:01:41;;;;;;;0.50;0.50;;;13.10;99.90;;;;;;5050742;28;20503;-74
2023/07/22 05:04:07;;;;;;;0.93;0.93;;;13.20;99.90;;;;;;5056061;28;20028;-74
2023/07/22 05:06:33;;;;;;;0.90;0.90;;;13.20;99.90;;;;;;5060144;28;20056;-73
2023/07/22 05:08:58;;;;;;;0.98;0.68;;;13.20;99.90;;;;;;5055574;28;20397;-74
2023/07/22 05:11:24;;;;;;;2.08;0.60;;;13.30;99.90;;;;;;5041517;28;20397;-74
2023/07/22 05:13:50;;;;;;;0.95;0.60;;;13.30;99.90;;;;;;5056778;28;20040;-73
2023/07/22 05:16:16;;;;;;;0.40;0.40;;;13.60;99.90;;;;;;5047339;28;20033;-73
2023/07/22 05:18:42;;;;;;;1.50;0.73;;;13.50;99.90;;;;;;5049935;28;20044;-74
2023/07/22 05:21:07;;;;;;;0.70;0.68;;;13.70;99.90;;;;;;5050704;28;20455;-74
2023/07/22 05:23:34;;;;;;;1.27;1.17;;;13.50;99.90;;;;;;5041582;28;20404;-74
2023/07/22 05:25:59;;;;;;;1.20;1.17;;;13.60;99.90;;;;;;5042921;28;20040;-73
2023/07/22 05:28:25;;;;;;;1.67;0.93;;;13.60;99.90;;;;;;5052184;28;20060;-74
2023/07/22 05:30:51;;;;;;;0.63;0.63;;;13.70;99.90;;;;;;5037559;28;20032;-74
2023/07/22 05:33:16;;;;;;;0.60;0.60;;;13.90;99.90;;;;;;5060209;28;20029;-74
2023/07/22 05:35:42;;;;;;;0.40;0.40;;;13.80;99.90;;;;;;5042638;28;20391;-74
2023/07/22 05:38:07;;;;;;;0.55;0.55;;;13.90;99.90;;;;;;5059085;28;20032;-74
2023/07/22 05:40:33;;;;;;;0.40;0.40;;;13.90;99.90;;;;;;5037367;28;20041;-73
2023/07/22 05:42:59;;;;;;;0.55;0.55;;;13.90;99.90;;;;;;5057100;28;20048;-74
2023/07/22 05:45:24;;;;;;;0.30;0.30;;;14.20;99.90;;;;;;5052118;28;20037;-74
2023/07/22 05:47:50;;;;;;;0.77;0.68;;;14.10;99.90;;;;;;5055407;28;20075;-74
2023/07/22 05:50:16;;;;;;;1.40;1.30;;;14.10;99.90;;;;;;5054473;28;20119;-73
2023/07/22 05:52:41;;;;;;;0.40;0.40;;;14.10;99.90;;;;;;5061908;28;20068;-74
2023/07/22 05:55:07;;;;;;;0.60;0.60;;;14.00;99.90;;;;;;5039398;28;20398;-74
2023/07/22 05:57:33;;;;;;;0.30;0.30;;;14.30;99.90;;;;;;5034047;28;20044;-74
2023/07/22 05:59:59;;;;;;;0.40;0.40;;;14.30;99.90;;;;;;5058209;28;20032;-74
2023/07/22 06:02:25;;;;;;;0.60;0.60;;;14.20;99.90;;;;;;5055237;28;20041;-74
2023/07/22 06:04:50;;;;;;;0.77;0.60;;;14.40;99.90;;;;;;5058735;28;20048;-74
2023/07/22 06:07:16;;;;;;;0.50;0.50;;;14.40;99.90;;;;;;5061170;28;20032;-74
2023/07/22 06:09:41;;;;;;;0.85;0.85;;;14.20;99.90;;;;;;5059076;28;20041;-74
2023/07/22 06:12:07;;;;;;;0.77;0.77;;;14.30;99.90;;;;;;5055315;28;20051;-74
2023/07/22 06:14:33;;;;;;;1.05;0.95;;;14.40;99.90;;;;;;5050404;28;20047;-73
2023/07/22 06:16:59;;;;;;;0.32;0.32;;;14.50;99.90;;;;;;5044499;28;20131;-74
2023/07/22 06:19:24;;;;;;;0.60;0.60;;;14.50;99.90;;;;;;5046180;28;20032;-73
2023/07/22 06:21:50;;;;;;;0.93;0.88;;;14.40;99.90;;;;;;5060353;28;20050;-74
2023/07/22 06:24:16;;;;;;;0.70;0.70;;;14.70;99.90;;;;;;5063874;28;20040;-74
2023/07/22 06:26:42;;;;;;;0.40;0.40;;;14.30;99.90;;;;;;5054999;28;20146;-74
2023/07/22 06:29:07;;;;;;;1.23;1.13;;;14.40;99.90;;;;;;5046001;28;20415;-74
2023/07/22 06:31:33;;;;;;;1.05;1.00;;;14.40;99.90;;;;;;5050210;28;20091;-73
2023/07/22 06:33:59;;;;;;;0.32;0.32;;;14.50;99.90;;;;;;5061113;28;20502;-73
2023/07/22 06:36:25;;;;;;;2.03;1.25;;;14.80;99.90;;;;;;5049293;28;20592;-74
2023/07/22 06:38:51;;;;;;;1.85;1.13;;;14.60;99.90;;;;;;5045242;28;20124;-72
2023/07/22 06:41:18;;;;;;;0.65;0.65;;;14.60;99.90;;;;;;5062285;28;20140;-73
2023/07/22 06:43:44;;;;;;;0.82;0.80;;;14.80;99.90;;;;;;5050621;28;20037;-74
2023/07/22 06:46:10;;;;;;;1.30;1.25;;;14.70;99.90;;;;;;5054081;28;20473;-74
2023/07/22 06:48:36;;;;;;;1.33;0.90;;;;;;;;;;5058300;28;20072;-73
2023/07/22 06:51:02;;;;;;;0.73;0.73;;;14.80;99.90;;;;;;5066599;28;20048;-73
2023/07/22 06:53:28;;;;;;;0.85;0.85;;;15.20;99.90;;;;;;5051071;28;20037;-74
2023/07/22 06:55:54;;;;;;;1.65;1.00;;;15.00;99.90;;;;;;5044020;28;20102;-73
2023/07/22 06:58:20;;;;;;;1.65;1.55;;;15.30;99.90;;;;;;5049732;28;20036;-73
2023/07/22 07:00:46;;;;;;;1.10;0.68;;;;;;;;;;5042122;28;20049;-74
2023/07/22 07:03:12;;;;;;;0.90;0.90;;;15.60;99.90;;;;;;5054400;28;20049;-74
2023/07/22 07:05:41;;;;;;;1.20;1.20;;;15.80;99.90;;;;;;5058332;28;20063;-74
2023/07/22 07:08:10;;;;;;;0.40;0.40;;;15.90;99.90;;;;;;5046344;28;20040;-73
2023/07/22 07:10:39;;;;;;;0.60;0.60;;;15.90;99.90;;;;;;5064313;28;20041;-73
2023/07/22 07:13:05;;;;;;;2.00;1.90;;;16.00;99.90;;;;;;5056781;28;20048;-71
2023/07/22 07:15:31;;;;;;;1.17;1.08;;;16.00;99.90;;;;;;5049680;28;20148;-74
2023/07/22 07:17:56;;;;;;;1.17;0.95;;;16.20;99.90;;;;;;5052540;28;20047;-74
2023/07/22 07:20:22;;;;;;;0.93;0.93;;;16.30;99.90;;;;;;5037849;28;20124;-73
2023/07/22 07:22:47;;;;;;;0.80;0.80;;;16.30;99.90;;;;;;5043726;28;20071;-73
2023/07/22 07:25:15;;;;;;;0.40;0.40;;;16.40;99.90;;;;;;5052616;28;20037;-73
2023/07/22 07:27:41;;;;;;;0.50;0.50;;;16.30;99.90;;;;;;5068661;28;20060;-73
2023/07/22 07:30:10;;;;;;;0.70;0.70;;;16.60;99.90;;;;;;5055673;28;20118;-74
2023/07/22 07:32:36;;;;;;;0.90;0.80;;;16.90;99.90;;;;;;5042694;28;20115;-74
2023/07/22 07:35:03;;;;;;;0.60;0.60;;;17.10;99.90;;;;;;5053684;28;20400;-73
2023/07/22 07:37:29;;;;;;;1.35;1.27;;;17.10;99.90;;;;;;5057043;28;20174;-73
2023/07/22 07:39:59;;;;;;;1.00;1.00;;;17.10;99.90;;;;;;5073897;28;20499;-73
2023/07/22 07:42:26;;;;;;;0.90;0.75;;;17.10;99.90;;;;;;5057774;28;20048;-73
2023/07/22 07:44:52;;;;;;;0.88;0.88;;;17.00;99.90;;;;;;5049528;28;20045;-73
2023/07/22 07:47:18;;;;;;;2.00;1.33;;;17.20;99.90;;;;;;5048708;28;20052;-71
2023/07/22 07:49:44;;;;;;;0.45;0.45;;;17.30;99.90;;;;;;5057742;28;20032;-73
2023/07/22 07:52:10;;;;;;;2.05;1.25;;;17.60;99.90;;;;;;5057823;28;20041;-73
2023/07/22 07:54:35;;;;;;;1.35;1.25;;;17.80;99.90;;;;;;5044891;28;20036;-72
2023/07/22 07:57:01;;;;;;;2.65;1.98;;;18.00;99.90;;;;;;5054651;28;20037;-71
2023/07/22 07:59:27;;;;;;;0.80;0.80;;;18.00;99.90;;;;;;5051951;28;20037;-72
2023/07/22 08:01:52;;;;;;;6.18;3.60;;;17.90;99.90;;;;;;5065731;28;20491;-71
2023/07/22 08:04:18;;;;;;;1.58;1.48;;;18.20;99.90;;;;;;5060465;28;21065;-70
2023/07/22 08:06:45;;;;;;;1.10;1.10;;;18.10;99.90;;;;;;5053355;28;20041;-71
2023/07/22 08:09:10;;;;;;;0.90;0.57;;;18.50;99.90;;;;;;5057104;28;20123;-71
2023/07/22 08:11:37;;;;;;;0.32;0.32;;;18.40;99.90;;;;;;5062968;28;20111;-72
2023/07/22 08:14:05;;;;;;;1.65;1.05;;;18.60;99.90;;;;;;5053812;28;20116;-71
2023/07/22 08:16:30;;;;;;;1.05;1.02;;;18.80;99.90;;;;;;5083594;28;20472;-72
2023/07/22 08:18:56;;;;;;;0.80;0.80;;;18.80;99.90;;;;;;5058654;28;20085;-71
2023/07/22 08:21:22;;;;;;;0.80;0.80;;;18.80;99.90;;;;;;5065068;28;20044;-71
2023/07/22 08:23:47;;;;;;;1.15;1.15;;;18.80;99.90;;;;;;5055314;28;20045;-71
2023/07/22 08:26:13;;;;;;;0.70;0.70;;;19.10;99.90;;;;;;5062526;28;20131;-71
2023/07/22 08:28:40;;;;;;;0.90;0.88;;;19.10;99.90;;;;;;5062258;28;20063;-72
2023/07/22 08:31:06;;;;;;;0.35;0.35;;;19.10;99.90;;;;;;5056229;28;20037;-72
2023/07/22 08:33:31;;;;;;;0.68;0.68;;;19.20;99.90;;;;;;5068103;28;20059;-72
2023/07/22 08:35:57;;;;;;;1.33;1.15;;;19.50;99.90;;;;;;5060724;28;20033;-72
2023/07/22 08:38:23;;;;;;;1.10;1.00;;;19.50;99.90;;;;;;5038512;28;20353;-70
2023/07/22 08:40:53;;;;;;;0.63;0.63;;;19.60;99.90;;;;;;5054211;28;20510;-70
2023/07/22 08:43:22;;;;;;;0.73;0.73;;;19.50;99.90;;;;;;5052619;28;20407;-70
2023/07/22 08:45:52;;;;;;;0.50;0.50;;;19.70;99.90;;;;;;5049015;28;20161;-70
2023/07/22 08:48:18;;;;;;;0.73;0.73;;;19.60;99.90;;;;;;5069187;28;20054;-73
2023/07/22 08:50:46;;;;;;;0.88;0.88;;;20.00;99.90;;;;;;5052383;28;20131;-70
2023/07/22 08:55:49;;;;;;;0.50;0.50;;;19.90;99.90;;;;;;5103172;22;20053;-71
2023/07/22 08:58:16;;;;;;;0.98;0.95;;;19.80;99.90;;;;;;5018461;28;20053;-70
2023/07/22 09:00:42;;;;;;;0.73;0.73;;;19.90;99.90;;;;;;5017508;28;20512;-71
2023/07/22 09:03:09;;;;;;;0.50;0.50;;;19.70;99.90;;;;;;5018553;28;20045;-70
2023/07/22 09:05:36;;;;;;;1.10;1.10;;;19.50;99.90;;;;;;5017290;28;20519;-72
2023/07/22 09:08:03;;;;;;;0.45;0.45;;;19.50;99.90;;;;;;5018022;28;20057;-70
2023/07/22 09:10:30;;;;;;;0.40;0.40;;;19.70;99.90;;;;;;5018532;28;20061;-70
2023/07/22 09:12:56;;;;;;;0.52;0.52;;;19.50;99.90;;;;;;5018429;28;20033;-76
2023/07/22 09:15:23;;;;;;;0.77;0.60;;;19.80;99.90;;;;;;5015250;28;20095;-72
2023/07/22 09:17:49;;;;;;;3.50;2.03;;;19.80;99.90;;;;;;5016932;28;20045;-72
2023/07/22 09:20:15;;;;;;;0.93;0.93;;;19.80;99.90;;;;;;5017122;28;20044;-72
2023/07/22 09:22:46;;;;;;;0.50;0.50;;;19.80;99.90;;;;;;5023149;28;20644;-72
2023/07/22 09:25:18;;;;;;;1.15;1.08;;;19.50;99.90;;;;;;5010616;28;20519;-72
2023/07/22 09:27:52;;;;;;;0.73;0.73;;;19.80;99.90;;;;;;5021510;28;20116;-73
2023/07/22 09:30:29;;;;;;;1.48;1.33;;;19.60;99.90;;;;;;5022839;28;20068;-72
2023/07/22 09:32:58;;;;;;;0.80;0.80;;;19.60;99.90;;;;;;4999803;28;20041;-72
2023/07/22 09:35:27;;;;;;;1.60;1.50;;;19.40;99.90;;;;;;5021103;28;20454;-72
2023/07/22 09:37:53;;;;;;;0.90;0.90;;;19.40;99.90;;;;;;5027164;28;20463;-72
2023/07/22 09:40:28;;;;;;;0.55;0.55;;;19.40;99.90;;;;;;5003731;28;20033;-72
2023/07/22 09:42:56;;;;;;;0.77;0.77;;;19.30;99.90;;;;;;5026806;28;20041;-72
2023/07/22 09:45:23;;;;;;;1.88;1.63;;;19.30;99.90;;;;;;5027416;28;20045;-72
2023/07/22 09:47:51;;;;;;;2.70;1.38;;;19.20;99.90;;;;;;5011294;28;20075;-73
2023/07/22 09:50:25;;;;;;;1.58;1.13;;;19.30;99.90;;;;;;5024023;28;20136;-72
2023/07/22 09:52:55;;;;;;;1.05;1.05;;;19.20;99.90;;;;;;5014381;28;20030;-71
2023/07/22 09:55:28;;;;;;;1.23;1.23;;;19.10;99.90;;;;;;5019325;28;20588;-72
2023/07/22 09:57:58;;;;;;;0.85;0.85;;;19.10;99.90;;;;;;5004237;28;20077;-72
2023/07/22 10:00:27;;;;;;;0.30;0.30;;;19.10;99.90;;;;;;5007638;28;20121;-72
2023/07/22 10:02:55;;;;;;;0.88;0.88;;;19.10;99.90;;;;;;5013039;28;20073;-72
2023/07/22 10:05:22;;;;;;;1.23;0.80;;;19.10;99.90;;;;;;5021115;28;20185;-72
2023/07/22 10:07:54;;;;;;;0.65;0.65;;;18.60;99.90;;;;;;5022203;28;20175;-72
2023/07/22 10:10:25;;;;;;;1.77;0.95;;;18.60;99.90;;;;;;5027315;28;20337;-72
2023/07/22 10:12:51;;;;;;;2.22;1.33;;;18.50;99.90;;;;;;5009333;28;20034;-71
2023/07/22 10:15:19;;;;;;;0.70;0.70;;;18.40;99.90;;;;;;5019268;28;20026;-71
2023/07/22 10:17:45;;;;;;;0.50;0.50;;;18.50;99.90;;;;;;5026398;28;21274;-70
2023/07/22 10:20:16;;;;;;;1.58;0.77;;;18.50;99.90;;;;;;5025234;28;20068;-71
2023/07/22 10:22:47;;;;;;;0.63;0.63;;;18.70;99.90;;;;;;5025577;28;20041;-71
2023/07/22 10:25:15;;;;;;;0.47;0.47;;;18.60;99.90;;;;;;5021070;28;20045;-71
2023/07/22 10:27:42;;;;;;;0.68;0.68;;;18.90;99.90;;;;;;5023632;28;20099;-71
2023/07/22 10:30:09;;;;;;;1.52;1.42;;;18.90;99.90;;;;;;5012731;28;20037;-71
2023/07/22 10:32:38;;;;;;;0.50;0.50;;;18.80;99.90;;;;;;5009885;28;20049;-71
2023/07/22 10:35:04;;;;;;;0.57;0.57;;;18.80;99.90;;;;;;5026479;28;20073;-70
2023/07/22 10:37:32;;;;;;;0.50;0.50;;;18.90;99.90;;;;;;5027143;28;20033;-71
2023/07/22 10:40:29;;;;;;;0.30;0.30;;;18.90;99.90;;;;;;5027110;28;20125;-70
2023/07/22 10:43:04;;;;;;;1.05;0.68;;;19.00;99.90;;;;;;5018747;28;20069;-71
2023/07/22 10:45:32;;;;;;;0.40;0.40;;;19.10;99.90;;;;;;5022005;28;20524;-71
2023/07/22 10:48:09;;;;;;;0.32;0.32;;;19.10;99.90;;;;;;5024774;28;20048;-71
2023/07/22 10:50:51;;;;;;;0.40;0.40;;;19.30;99.90;;;;;;5026537;28;20516;-72
2023/07/22 10:53:26;;;;;;;0.65;0.65;;;19.20;99.90;;;;;;5026985;28;20073;-71
2023/07/22 10:56:14;;;;;;;0.52;0.52;;;19.30;99.90;;;;;;5021199;28;20588;-71
2023/07/22 10:58:46;;;;;;;0.82;0.82;;;19.30;99.90;;;;;;5024729;28;20687;-71
2023/07/22 11:01:39;;;;;;;0.40;0.40;;;19.30;99.90;;;;;;5026487;28;20399;-70
2023/07/22 11:04:30;;;;;;;0.50;0.50;;;19.40;99.90;;;;;;5024843;28;20057;-72
2023/07/22 11:07:47;;;;;;;0.50;0.50;;;19.40;99.90;;;;;;5024627;28;20112;-71
2023/07/22 11:10:19;;;;;;;0.40;0.40;;;19.60;99.90;;;;;;5022207;28;20081;-71
2023/07/22 11:12:45;;;;;;;0.75;0.50;;;19.40;99.90;;;;;;5027740;28;20044;-71
2023/07/22 11:15:14;;;;;;;0.40;0.40;;;19.40;99.90;;;;;;5029210;28;20128;-71
2023/07/22 11:17:40;;;;;;;0.40;0.40;;;19.30;99.90;;;;;;5021381;28;20045;-72
2023/07/22 11:20:06;;;;;;;0.63;0.63;;;19.30;99.90;;;;;;5030091;28;20116;-72
2023/07/22 11:22:31;;;;;;;0.60;0.60;;;19.40;99.90;;;;;;5009827;28;20034;-71
2023/07/22 11:25:00;;;;;;;0.55;0.55;;;19.10;99.90;;;;;;5027216;28;20049;-71
2023/07/22 11:27:26;;;;;;;0.40;0.40;;;19.40;99.90;;;;;;5029433;28;20041;-72
2023/07/22 11:29:52;;;;;;;0.50;0.50;;;19.00;99.90;;;;;;5027066;28;20080;-71
2023/07/22 11:32:21;;;;;;;0.40;0.40;;;19.20;99.90;;;;;;5028829;28;20037;-70
2023/07/22 11:34:47;;;;;;;0.40;0.40;;;18.90;99.90;;;;;;5018587;28;20041;-69
2023/07/22 11:37:14;;;;;;;0.40;0.40;;;19.10;99.90;;;;;;5018624;28;20129;-69
2023/07/22 11:39:42;;;;;;;0.40;0.40;;;18.80;99.90;;;;;;5022839;28;20397;-70
2023/07/22 11:42:08;;;;;;;0.40;0.40;;;18.60;99.90;;;;;;5008625;28;20049;-70
2023/07/22 11:44:34;;;;;;;0.40;0.40;;;18.60;99.90;;;;;;5028488;28;20045;-70
2023/07/22 11:47:03;;;;;;;0.45;0.45;;;18.30;99.90;;;;;;5025127;28;20080;-71
2023/07/22 11:49:36;;;;;;;0.30;0.30;;;18.40;99.90;;;;;;5026859;28;20160;-70
2023/07/22 11:52:07;;;;;;;0.63;0.63;;;18.30;99.90;;;;;;5029723;28;20039;-73
2023/07/22 11:54:34;;;;;;;0.30;0.30;;;18.60;99.90;;;;;;5028468;28;20061;-71
2023/07/22 11:57:17;;;;;;;0.82;0.82;;;18.20;99.90;;;;;;5029929;28;20045;-71
2023/07/22 11:59:45;;;;;;;0.47;0.47;;;18.10;99.90;;;;;;5029954;28;20037;-70
2023/07/22 12:02:25;;;;;;;1.25;1.17;;;18.00;99.90;;;;;;5012612;28;20041;-70
2023/07/22 12:05:04;;;;;;;0.47;0.47;;;18.10;99.90;;;;;;5006968;28;20488;-70
2023/07/22 12:07:35;;;;;;;0.30;0.30;;;17.70;99.90;;;;;;5009780;28;20047;-71
2023/07/22 12:10:05;;;;;;;0.47;0.47;;;17.90;99.90;;;;;;5029642;28;20037;-71
2023/07/22 12:12:39;;;;;;;0.40;0.40;;;17.90;99.90;;;;;;5029589;28;20048;-71
2023/07/22 12:15:13;;;;;;;0.45;0.45;;;17.60;99.90;;;;;;5028743;28;20481;-72
2023/07/22 12:17:50;;;;;;;0.50;0.50;;;17.60;99.90;;;;;;5041063;28;20033;-70
2023/07/22 12:20:16;;;;;;;1.60;1.20;;;17.70;99.90;;;;;;5024996;28;20103;-71
2023/07/22 12:22:45;;;;;;;0.40;0.40;;;17.90;99.90;;;;;;5020503;28;20037;-71
2023/07/22 12:25:10;;;;;;;0.50;0.50;;;17.50;99.90;;;;;;5026108;28;20051;-71
2023/07/22 12:27:37;;;;;;;0.73;0.73;;;17.80;99.90;;;;;;5022290;28;20037;-71
2023/07/22 12:30:04;;;;;;;0.35;0.35;;;17.60;99.90;;;;;;5024699;28;20519;-71
2023/07/22 12:32:29;;;;;;;0.47;0.47;;;17.70;99.90;;;;;;5028206;28;20044;-71
2023/07/22 12:34:55;;;;;;;0.70;0.70;;;18.00;99.90;;;;;;5029094;28;20037;-71
2023/07/22 12:37:21;;;;;;;0.50;0.50;;;17.90;99.90;;;;;;5029490;28;20288;-71
2023/07/22 12:39:46;;;;;;;0.82;0.82;;;17.70;99.90;;;;;;5028257;28;20068;-71
2023/07/22 12:42:12;;;;;;;0.30;0.30;;;17.70;99.90;;;;;;5028612;28;20092;-70
2023/07/22 12:44:37;;;;;;;0.65;0.65;;;17.70;99.90;;;;;;5028825;28;20041;-71
2023/07/22 12:47:03;;;;;;;0.63;0.63;;;17.50;99.90;;;;;;5028727;28;20044;-70
2023/07/22 12:49:29;;;;;;;0.60;0.60;;;17.60;99.90;;;;;;5009621;28;20041;-70
2023/07/22 12:51:55;;;;;;;0.60;0.60;;;17.60;99.90;;;;;;5027616;28;20452;-71